Nrc Columbia — WDA8288 — position and weather

sailwx.info

Track history (hours):
 
Tides and Currents Weather Stations Pressure Air Temp Water Temp Dewpoint Dewpoint Depression Visibility Wind Speed Wind Dir Waves Ship Positions

Nrc Columbia

Owner: National Response Corporation, The Woodlands, TX. More information available from US FCC via Universal Licensing System and Coast Guard Vessel Documentation Center.

Last reported at 2017-Feb-23 06:33 UTC. Time now 2017-Feb-23 07:08 UTC.
Position N 48°50' W 122°43'.

Length 35 m.

Type: Pollution control. MMSI: 366710170.

Date/timePositionNaut miles runAvg speedWind from/ knotsBaromVisibWave heightAir tempDewpointWater temp
2017-Feb-23 06:33N 48°50' W 122°43'0 0.0
2017-Feb-23 04:28N 48°50' W 122°43'0 0.0
2017-Feb-23 01:33N 48°50' W 122°43'0 0.0
2017-Feb-22 23:31N 48°50' W 122°43'0 0.0
2017-Feb-22 22:31N 48°50' W 122°43'0 0.0
2017-Feb-22 21:31N 48°50' W 122°43'0 0.0
2017-Feb-22 17:13N 48°50' W 122°43'0 0.0
2017-Feb-22 15:27N 48°50' W 122°43'0 0.0
2017-Feb-22 14:15N 48°50' W 122°43'0 0.0
2017-Feb-22 12:28N 48°50' W 122°43'1 0.2
2017-Feb-22 06:33N 48°49' W 122°44'9 8.7
2017-Feb-22 05:33N 48°41' W 122°38'5 5.0
2017-Feb-22 04:33N 48°43' W 122°31'0 0.0
2017-Feb-22 03:30N 48°43' W 122°31'0 0.0
2017-Feb-22 02:33N 48°43' W 122°31'0 0.0
2017-Feb-21 23:18N 48°43' W 122°31'0 0.0
2017-Feb-21 19:15N 48°43' W 122°31'0 0.0
2017-Feb-21 18:03N 48°43' W 122°31'0 0.0
2017-Feb-21 17:30N 48°43' W 122°31'0 0.0
2017-Feb-21 16:30N 48°43' W 122°31'0 0.0
2017-Feb-21 15:18N 48°43' W 122°31'0 0.0
2017-Feb-21 14:33N 48°43' W 122°31'0 0.0
2017-Feb-21 13:33N 48°43' W 122°31'0 0.0
2017-Feb-21 12:33N 48°43' W 122°31'0 0.0
2017-Feb-21 11:33N 48°43' W 122°31'0 0.0
2017-Feb-21 10:33N 48°43' W 122°31'0 0.0
2017-Feb-21 09:30N 48°43' W 122°31'0 0.0
2017-Feb-21 08:30N 48°43' W 122°31'0 0.0
2017-Feb-21 07:30N 48°43' W 122°31'0 0.0
2017-Feb-21 06:33N 48°43' W 122°31'0 0.0
2017-Feb-21 05:33N 48°43' W 122°31'0 0.0
2017-Feb-21 04:33N 48°43' W 122°31'0 0.0
2017-Feb-21 03:33N 48°43' W 122°31'3 3.1
2017-Feb-21 02:33N 48°41' W 122°34'5 4.6
2017-Feb-21 01:33N 48°43' W 122°40'0 0.0
2017-Feb-21 00:32N 48°43' W 122°40'0 0.1
2017-Feb-20 23:29N 48°43' W 122°40'7 1.1
2017-Feb-20 17:33N 48°49' W 122°43'8 8.0
2017-Feb-20 16:32N 48°42' W 122°39'5 5.6
2017-Feb-20 15:33N 48°43' W 122°31'0 0.0
2017-Feb-20 14:30N 48°43' W 122°31'0 0.0
2017-Feb-20 13:30N 48°43' W 122°31'0 0.0
2017-Feb-20 12:18N 48°43' W 122°31'0 0.0
2017-Feb-20 10:18N 48°43' W 122°31'0 0.0
2017-Feb-20 09:33N 48°43' W 122°31'0 0.0
2017-Feb-20 08:30N 48°43' W 122°31'0 0.0
2017-Feb-20 07:33N 48°43' W 122°31'0 0.0
2017-Feb-20 06:33N 48°43' W 122°31'0 0.0
2017-Feb-20 05:33N 48°43' W 122°31'0 0.0
2017-Feb-20 04:33N 48°43' W 122°31'0 0.0
2017-Feb-20 03:33N 48°43' W 122°31'0 0.0
2017-Feb-20 02:24N 48°43' W 122°31'0 0.0
2017-Feb-20 01:33N 48°43' W 122°31'0 0.0
2017-Feb-20 00:21N 48°43' W 122°31'0 0.0
2017-Feb-19 23:30N 48°43' W 122°31'0 0.0
2017-Feb-19 22:24N 48°43' W 122°31'0 0.0
2017-Feb-19 21:24N 48°43' W 122°31'0 0.0
2017-Feb-19 20:33N 48°43' W 122°31'0 0.0
2017-Feb-19 19:30N 48°43' W 122°31'0 0.0
2017-Feb-19 18:30N 48°43' W 122°31'0 0.0
2017-Feb-19 17:24N 48°43' W 122°31'0 0.0
2017-Feb-19 16:03N 48°43' W 122°31'0 0.0
2017-Feb-19 14:21N 48°43' W 122°31'0 0.0
2017-Feb-19 13:09N 48°43' W 122°31'0 0.0
2017-Feb-19 12:33N 48°43' W 122°31'0 0.0
2017-Feb-19 11:33N 48°43' W 122°31'0 0.0
2017-Feb-19 10:18N 48°43' W 122°31'0 0.0
2017-Feb-19 09:24N 48°43' W 122°31'0 0.0
2017-Feb-19 08:30N 48°43' W 122°31'0 0.0
2017-Feb-19 07:33N 48°43' W 122°31'0 0.0
2017-Feb-19 06:30N 48°43' W 122°31'0 0.0
2017-Feb-19 05:33N 48°43' W 122°31'0 0.0
2017-Feb-19 04:33N 48°43' W 122°31'0 0.0
2017-Feb-19 03:30N 48°43' W 122°31'0 0.0
2017-Feb-19 02:24N 48°43' W 122°31'0 0.0
2017-Feb-19 01:33N 48°43' W 122°31'0 0.0
2017-Feb-19 00:30N 48°43' W 122°31'4 4.7
2017-Feb-18 23:33N 48°40' W 122°36'9 8.8
2017-Feb-18 22:33N 48°47' W 122°44'3 0.6
2017-Feb-18 18:12N 48°50' W 122°43'0 0.0
2017-Feb-18 07:11N 48°50' W 122°43'0 0.0
2017-Feb-18 06:20N 48°50' W 122°43'0 0.0
2017-Feb-18 04:23N 48°50' W 122°43'0 0.0
2017-Feb-18 02:26N 48°50' W 122°43'0 0.0
2017-Feb-17 15:05N 48°50' W 122°43'0 0.0
2017-Feb-17 07:29N 48°50' W 122°43'0 0.0
2017-Feb-17 01:26N 48°50' W 122°43'0 0.0
2017-Feb-16 22:26N 48°50' W 122°43'0 0.0
2017-Feb-16 18:23N 48°50' W 122°43'0 0.0
2017-Feb-16 17:08N 48°50' W 122°43'0 0.0
2017-Feb-16 15:05N 48°50' W 122°43'0 0.1
2017-Feb-16 14:29N 48°50' W 122°43'0 0.0
2017-Feb-16 05:26N 48°50' W 122°43'0 0.0
2017-Feb-16 04:23N 48°50' W 122°43'0 0.0
2017-Feb-16 03:05N 48°50' W 122°43'0 0.0
2017-Feb-15 22:05N 48°50' W 122°43'0 0.0
2017-Feb-15 21:29N 48°50' W 122°43'0 0.0
2017-Feb-15 20:26N 48°50' W 122°43'0 0.0
2017-Feb-15 19:29N 48°50' W 122°43'0 0.0
2017-Feb-15 18:20N 48°50' W 122°43'0 0.0
2017-Feb-15 14:17N 48°50' W 122°43'0 0.1
2017-Feb-15 13:32N 48°50' W 122°43'0 0.0
2017-Feb-15 11:32N 48°50' W 122°43'0 0.0
2017-Feb-15 10:05N 48°50' W 122°43'0 0.0
2017-Feb-15 08:26N 48°50' W 122°43'0 0.0
2017-Feb-15 05:29N 48°50' W 122°43'0 0.0
2017-Feb-15 04:23N 48°50' W 122°43'0 0.0
2017-Feb-15 03:26N 48°50' W 122°43'0 0.0
2017-Feb-15 02:32N 48°50' W 122°43'0 0.0
2017-Feb-14 23:29N 48°50' W 122°43'0 0.0
2017-Feb-14 22:29N 48°50' W 122°43'0 0.0
2017-Feb-14 20:23N 48°50' W 122°43'0 0.0
2017-Feb-14 08:32N 48°50' W 122°43'0 0.0
2017-Feb-14 07:29N 48°50' W 122°43'0 0.0
2017-Feb-14 06:26N 48°50' W 122°43'0 0.0
2017-Feb-14 02:05N 48°50' W 122°43'0 0.0
2017-Feb-14 01:23N 48°50' W 122°43'0 0.0
2017-Feb-13 19:17N 48°50' W 122°43'0 0.0
2017-Feb-13 17:32N 48°50' W 122°43'0 0.0
2017-Feb-13 16:29N 48°50' W 122°43'0 0.0
2017-Feb-13 15:17N 48°50' W 122°43'0 0.0
2017-Feb-13 14:26N 48°50' W 122°43'0 0.0
2017-Feb-13 11:29N 48°50' W 122°43'0 0.0
2017-Feb-13 10:23N 48°50' W 122°43'0 0.0
2017-Feb-13 09:29N 48°50' W 122°43'0 0.0
2017-Feb-13 08:23N 48°50' W 122°43'0 0.0
2017-Feb-13 07:29N 48°50' W 122°43'  
Track history (hours):
 
Tides and Currents Weather Stations Pressure Air Temp Water Temp Dewpoint Dewpoint Depression Visibility Wind Speed Wind Dir Waves Ship Positions

Nrc Columbia

Owner: National Response Corporation, The Woodlands, TX. More information available from US FCC via Universal Licensing System and Coast Guard Vessel Documentation Center.

Last reported at 2017-Feb-23 06:33 UTC. Time now 2017-Feb-23 07:08 UTC.
Position N 48°50' W 122°43'.

Length 35 m.

Type: Pollution control. MMSI: 366710170.

Date/timePositionNaut miles runAvg speedWind from/ knotsBaromVisibWave heightAir tempDewpointWater temp
2017-Feb-23 06:33N 48°50' W 122°43'0 0.0
2017-Feb-23 04:28N 48°50' W 122°43'0 0.0
2017-Feb-23 01:33N 48°50' W 122°43'0 0.0
2017-Feb-22 23:31N 48°50' W 122°43'0 0.0
2017-Feb-22 22:31N 48°50' W 122°43'0 0.0
2017-Feb-22 21:31N 48°50' W 122°43'0 0.0
2017-Feb-22 17:13N 48°50' W 122°43'0 0.0
2017-Feb-22 15:27N 48°50' W 122°43'0 0.0
2017-Feb-22 14:15N 48°50' W 122°43'0 0.0
2017-Feb-22 12:28N 48°50' W 122°43'1 0.2
2017-Feb-22 06:33N 48°49' W 122°44'9 8.7
2017-Feb-22 05:33N 48°41' W 122°38'5 5.0
2017-Feb-22 04:33N 48°43' W 122°31'0 0.0
2017-Feb-22 03:30N 48°43' W 122°31'0 0.0
2017-Feb-22 02:33N 48°43' W 122°31'0 0.0
2017-Feb-21 23:18N 48°43' W 122°31'0 0.0
2017-Feb-21 19:15N 48°43' W 122°31'0 0.0
2017-Feb-21 18:03N 48°43' W 122°31'0 0.0
2017-Feb-21 17:30N 48°43' W 122°31'0 0.0
2017-Feb-21 16:30N 48°43' W 122°31'0 0.0
2017-Feb-21 15:18N 48°43' W 122°31'0 0.0
2017-Feb-21 14:33N 48°43' W 122°31'0 0.0
2017-Feb-21 13:33N 48°43' W 122°31'0 0.0
2017-Feb-21 12:33N 48°43' W 122°31'0 0.0
2017-Feb-21 11:33N 48°43' W 122°31'0 0.0
2017-Feb-21 10:33N 48°43' W 122°31'0 0.0
2017-Feb-21 09:30N 48°43' W 122°31'0 0.0
2017-Feb-21 08:30N 48°43' W 122°31'0 0.0
2017-Feb-21 07:30N 48°43' W 122°31'0 0.0
2017-Feb-21 06:33N 48°43' W 122°31'0 0.0
2017-Feb-21 05:33N 48°43' W 122°31'0 0.0
2017-Feb-21 04:33N 48°43' W 122°31'0 0.0
2017-Feb-21 03:33N 48°43' W 122°31'3 3.1
2017-Feb-21 02:33N 48°41' W 122°34'5 4.6
2017-Feb-21 01:33N 48°43' W 122°40'0 0.0
2017-Feb-21 00:32N 48°43' W 122°40'0 0.1
2017-Feb-20 23:29N 48°43' W 122°40'7 1.1
2017-Feb-20 17:33N 48°49' W 122°43'8 8.0
2017-Feb-20 16:32N 48°42' W 122°39'5 5.6
2017-Feb-20 15:33N 48°43' W 122°31'0 0.0
2017-Feb-20 14:30N 48°43' W 122°31'0 0.0
2017-Feb-20 13:30N 48°43' W 122°31'0 0.0
2017-Feb-20 12:18N 48°43' W 122°31'0 0.0
2017-Feb-20 10:18N 48°43' W 122°31'0 0.0
2017-Feb-20 09:33N 48°43' W 122°31'0 0.0
2017-Feb-20 08:30N 48°43' W 122°31'0 0.0
2017-Feb-20 07:33N 48°43' W 122°31'0 0.0
2017-Feb-20 06:33N 48°43' W 122°31'0 0.0
2017-Feb-20 05:33N 48°43' W 122°31'0 0.0
2017-Feb-20 04:33N 48°43' W 122°31'0 0.0
2017-Feb-20 03:33N 48°43' W 122°31'0 0.0
2017-Feb-20 02:24N 48°43' W 122°31'0 0.0
2017-Feb-20 01:33N 48°43' W 122°31'0 0.0
2017-Feb-20 00:21N 48°43' W 122°31'0 0.0
2017-Feb-19 23:30N 48°43' W 122°31'0 0.0
2017-Feb-19 22:24N 48°43' W 122°31'0 0.0
2017-Feb-19 21:24N 48°43' W 122°31'0 0.0
2017-Feb-19 20:33N 48°43' W 122°31'0 0.0
2017-Feb-19 19:30N 48°43' W 122°31'0 0.0
2017-Feb-19 18:30N 48°43' W 122°31'0 0.0
2017-Feb-19 17:24N 48°43' W 122°31'0 0.0
2017-Feb-19 16:03N 48°43' W 122°31'0 0.0
2017-Feb-19 14:21N 48°43' W 122°31'0 0.0
2017-Feb-19 13:09N 48°43' W 122°31'0 0.0
2017-Feb-19 12:33N 48°43' W 122°31'0 0.0
2017-Feb-19 11:33N 48°43' W 122°31'0 0.0
2017-Feb-19 10:18N 48°43' W 122°31'0 0.0
2017-Feb-19 09:24N 48°43' W 122°31'0 0.0
2017-Feb-19 08:30N 48°43' W 122°31'0 0.0
2017-Feb-19 07:33N 48°43' W 122°31'0 0.0
2017-Feb-19 06:30N 48°43' W 122°31'0 0.0
2017-Feb-19 05:33N 48°43' W 122°31'0 0.0
2017-Feb-19 04:33N 48°43' W 122°31'0 0.0
2017-Feb-19 03:30N 48°43' W 122°31'0 0.0
2017-Feb-19 02:24N 48°43' W 122°31'0 0.0
2017-Feb-19 01:33N 48°43' W 122°31'0 0.0
2017-Feb-19 00:30N 48°43' W 122°31'4 4.7
2017-Feb-18 23:33N 48°40' W 122°36'9 8.8
2017-Feb-18 22:33N 48°47' W 122°44'3 0.6
2017-Feb-18 18:12N 48°50' W 122°43'0 0.0
2017-Feb-18 07:11N 48°50' W 122°43'0 0.0
2017-Feb-18 06:20N 48°50' W 122°43'0 0.0
2017-Feb-18 04:23N 48°50' W 122°43'0 0.0
2017-Feb-18 02:26N 48°50' W 122°43'0 0.0
2017-Feb-17 15:05N 48°50' W 122°43'0 0.0
2017-Feb-17 07:29N 48°50' W 122°43'0 0.0
2017-Feb-17 01:26N 48°50' W 122°43'0 0.0
2017-Feb-16 22:26N 48°50' W 122°43'0 0.0
2017-Feb-16 18:23N 48°50' W 122°43'0 0.0
2017-Feb-16 17:08N 48°50' W 122°43'0 0.0
2017-Feb-16 15:05N 48°50' W 122°43'0 0.1
2017-Feb-16 14:29N 48°50' W 122°43'0 0.0
2017-Feb-16 05:26N 48°50' W 122°43'0 0.0
2017-Feb-16 04:23N 48°50' W 122°43'0 0.0
2017-Feb-16 03:05N 48°50' W 122°43'0 0.0
2017-Feb-15 22:05N 48°50' W 122°43'0 0.0
2017-Feb-15 21:29N 48°50' W 122°43'0 0.0
2017-Feb-15 20:26N 48°50' W 122°43'0 0.0
2017-Feb-15 19:29N 48°50' W 122°43'0 0.0
2017-Feb-15 18:20N 48°50' W 122°43'0 0.0
2017-Feb-15 14:17N 48°50' W 122°43'0 0.1
2017-Feb-15 13:32N 48°50' W 122°43'0 0.0
2017-Feb-15 11:32N 48°50' W 122°43'0 0.0
2017-Feb-15 10:05N 48°50' W 122°43'0 0.0
2017-Feb-15 08:26N 48°50' W 122°43'0 0.0
2017-Feb-15 05:29N 48°50' W 122°43'0 0.0
2017-Feb-15 04:23N 48°50' W 122°43'0 0.0
2017-Feb-15 03:26N 48°50' W 122°43'0 0.0
2017-Feb-15 02:32N 48°50' W 122°43'0 0.0
2017-Feb-14 23:29N 48°50' W 122°43'0 0.0
2017-Feb-14 22:29N 48°50' W 122°43'0 0.0
2017-Feb-14 20:23N 48°50' W 122°43'0 0.0
2017-Feb-14 08:32N 48°50' W 122°43'0 0.0
2017-Feb-14 07:29N 48°50' W 122°43'0 0.0
2017-Feb-14 06:26N 48°50' W 122°43'0 0.0
2017-Feb-14 02:05N 48°50' W 122°43'0 0.0
2017-Feb-14 01:23N 48°50' W 122°43'0 0.0
2017-Feb-13 19:17N 48°50' W 122°43'0 0.0
2017-Feb-13 17:32N 48°50' W 122°43'0 0.0
2017-Feb-13 16:29N 48°50' W 122°43'0 0.0
2017-Feb-13 15:17N 48°50' W 122°43'0 0.0
2017-Feb-13 14:26N 48°50' W 122°43'0 0.0
2017-Feb-13 11:29N 48°50' W 122°43'0 0.0
2017-Feb-13 10:23N 48°50' W 122°43'0 0.0
2017-Feb-13 09:29N 48°50' W 122°43'0 0.0
2017-Feb-13 08:23N 48°50' W 122°43'0 0.0
2017-Feb-13 07:29N 48°50' W 122°43'  

Dump ship's entire track history